Wheatonville, Indiana
Current Conditions -  °F | °C
As of 5:54 AM on Sunday 21 Dec 2014 (Local Time) from KEVV Reporting Station
Haze Haze  
Wind Chill: 22°   Ceiling: Unl
Heat Index: 27°   Visibility: 4mi
Dew Point: 23°   Wind: 5mph
Humidity: 85%   Direction: 20°NNE
Pressure: 30.29"   Gusts: NA
Location:  38.2175°N, 87.3932°W
Report Text: KEVV 211154Z 02004KT 4SM BR CLR M03/M05 A3029 RMK AO2 SLP262 I6000 T10281050 11017 21039 55003
Loading
Personal Weather Stations






























Interactive Weather Map New forecast layout! Learn more

10-Day Weather Forecast

Advertisements
Track Severe Weather on mobile